Aviation Digital Data Service (ADDS)

Output produced by METARs form (0801 UTC 20 March 2019)
found at http://www.aviationweather.gov/metar/data/
 
METAR text: LFBD 200730Z AUTO VRB02KT 9999 4000 NSC 07/04 Q1033 NOSIG
Conditions at: LFBD (BORDEAUX/MERIGNA, FR) observed 0730 UTC 20 March 2019
Temperature: 7.0°C (45°F)
Dewpoint: 4.0°C (39°F) [RH = 81%]
Pressure (altimeter): 30.50 inches Hg (1033.0 mb)
Winds: variable direction winds at 2 MPH (2 knots; 1.0 m/s)
Visibility: 6 or more miles (10+ km)
Ceiling: at least 12,000 feet AGL
Clouds: sky clear below 12,000 feet AGL
Weather: no significant weather observed at this time

METAR text: LFBD 200700Z AUTO 00000KT 9999 4800 NSC 05/04 Q1033 NOSIG
Conditions at: LFBD (BORDEAUX/MERIGNA, FR) observed 0700 UTC 20 March 2019
Temperature: 5.0°C (41°F)
Dewpoint: 4.0°C (39°F) [RH = 93%]
Pressure (altimeter): 30.50 inches Hg (1033.0 mb)
Winds: calm
Visibility: 6 or more miles (10+ km)
Ceiling: at least 12,000 feet AGL
Clouds: sky clear below 12,000 feet AGL
Weather: no significant weather observed at this time

METAR text: LFBD 200630Z AUTO VRB01KT CAVOK 03/02 Q1033 NOSIG
Conditions at: LFBD (BORDEAUX/MERIGNA, FR) observed 0630 UTC 20 March 2019
Temperature: 3.0°C (37°F)
Dewpoint: 2.0°C (36°F) [RH = 93%]
Pressure (altimeter): 30.50 inches Hg (1033.0 mb)
Winds: variable direction winds at 1 MPH (1 knots; 0.5 m/s)
Visibility: 6 or more miles (10+ km)
Ceiling: ceiling and visibility are OK
Clouds: unknown
Weather: no significant weather observed at this time

METAR text: LFBD 200600Z AUTO VRB02KT 9999 2300 NSC 02/01 Q1032 TEMPO 0800 BCFG
Conditions at: LFBD (BORDEAUX/MERIGNA, FR) observed 0600 UTC 20 March 2019
Temperature: 2.0°C (36°F)
Dewpoint: 1.0°C (34°F) [RH = 93%]
Pressure (altimeter): 30.47 inches Hg (1032.0 mb)
Winds: variable direction winds at 2 MPH (2 knots; 1.0 m/s)
Visibility: 6 or more miles (10+ km)
Ceiling: at least 12,000 feet AGL
Clouds: sky clear below 12,000 feet AGL
Weather: no significant weather observed at this time

METAR text: LFBD 200530Z AUTO VRB01KT 9999 4700 R05/0900U NSC 02/01 Q1032 TEMPO 0800 BCFG
Conditions at: LFBD (BORDEAUX/MERIGNA, FR) observed 0530 UTC 20 March 2019
Temperature: 2.0°C (36°F)
Dewpoint: 1.0°C (34°F) [RH = 93%]
Pressure (altimeter): 30.47 inches Hg (1032.0 mb)
Winds: variable direction winds at 1 MPH (1 knots; 0.5 m/s)
Visibility: 6 or more miles (10+ km)
Ceiling: at least 12,000 feet AGL
Clouds: sky clear below 12,000 feet AGL
Weather: no significant weather observed at this time

METAR text: LFBD 200500Z AUTO 31001KT 9999 1600 R05/1400U NSC 03/02 Q1032
Conditions at: LFBD (BORDEAUX/MERIGNA, FR) observed 0500 UTC 20 March 2019
Temperature: 3.0°C (37°F)
Dewpoint: 2.0°C (36°F) [RH = 93%]
Pressure (altimeter): 30.47 inches Hg (1032.0 mb)
Winds: from the NW (310 degrees) at 1 MPH (1 knots; 0.5 m/s)
Visibility: 6 or more miles (10+ km)
Ceiling: at least 12,000 feet AGL
Clouds: sky clear below 12,000 feet AGL
Weather: no significant weather observed at this time

METAR text: LFBD 200430Z AUTO 00000KT 9999 0900 R23/P2300 R05/1300N R29/P2300 BCFG NSC 03/02 Q1032
Conditions at: LFBD (BORDEAUX/MERIGNA, FR) observed 0430 UTC 20 March 2019
Temperature: 3.0°C (37°F)
Dewpoint: 2.0°C (36°F) [RH = 93%]
Pressure (altimeter): 30.47 inches Hg (1032.0 mb)
Winds: calm
Visibility: 6 or more miles (10+ km)
Ceiling: at least 12,000 feet AGL
Clouds: sky clear below 12,000 feet AGL
Weather: BCFG  (patches of fog)

METAR text: LFBD 200400Z AUTO 00000KT 9999 0700 R23/P2300 R05/0800U R29/P2300 BCFG NSC 04/03 Q1032
Conditions at: LFBD (BORDEAUX/MERIGNA, FR) observed 0400 UTC 20 March 2019
Temperature: 4.0°C (39°F)
Dewpoint: 3.0°C (37°F) [RH = 93%]
Pressure (altimeter): 30.47 inches Hg (1032.0 mb)
Winds: calm
Visibility: 6 or more miles (10+ km)
Ceiling: at least 12,000 feet AGL
Clouds: sky clear below 12,000 feet AGL
Weather: BCFG  (patches of fog)

METAR text: LFBD 200330Z AUTO VRB01KT 9999 1000 R23/P2300 R05/1200D R29/P2300 NSC 05/03 Q1032
Conditions at: LFBD (BORDEAUX/MERIGNA, FR) observed 0330 UTC 20 March 2019
Temperature: 5.0°C (41°F)
Dewpoint: 3.0°C (37°F) [RH = 87%]
Pressure (altimeter): 30.47 inches Hg (1032.0 mb)
Winds: variable direction winds at 1 MPH (1 knots; 0.5 m/s)
Visibility: 6 or more miles (10+ km)
Ceiling: at least 12,000 feet AGL
Clouds: sky clear below 12,000 feet AGL
Weather: no significant weather observed at this time

METAR text: LFBD 200300Z AUTO 03003KT CAVOK 05/03 Q1032
Conditions at: LFBD (BORDEAUX/MERIGNA, FR) observed 0300 UTC 20 March 2019
Temperature: 5.0°C (41°F)
Dewpoint: 3.0°C (37°F) [RH = 87%]
Pressure (altimeter): 30.47 inches Hg (1032.0 mb)
Winds: from the NNE (30 degrees) at 3 MPH (3 knots; 1.5 m/s)
Visibility: 6 or more miles (10+ km)
Ceiling: ceiling and visibility are OK
Clouds: unknown
Weather: no significant weather observed at this time

METAR text: LFBD 200230Z AUTO 01005KT CAVOK 05/03 Q1032
Conditions at: LFBD (BORDEAUX/MERIGNA, FR) observed 0230 UTC 20 March 2019
Temperature: 5.0°C (41°F)
Dewpoint: 3.0°C (37°F) [RH = 87%]
Pressure (altimeter): 30.47 inches Hg (1032.0 mb)
Winds: from the N (10 degrees) at 6 MPH (5 knots; 2.6 m/s)
Visibility: 6 or more miles (10+ km)
Ceiling: ceiling and visibility are OK
Clouds: unknown
Weather: no significant weather observed at this time

METAR text: LFBD 200200Z AUTO 36003KT CAVOK 05/04 Q1032
Conditions at: LFBD (BORDEAUX/MERIGNA, FR) observed 0200 UTC 20 March 2019
Temperature: 5.0°C (41°F)
Dewpoint: 4.0°C (39°F) [RH = 93%]
Pressure (altimeter): 30.47 inches Hg (1032.0 mb)
Winds: from the N (360 degrees) at 3 MPH (3 knots; 1.5 m/s)
Visibility: 6 or more miles (10+ km)
Ceiling: ceiling and visibility are OK
Clouds: unknown
Weather: no significant weather observed at this time

METAR text: LFBD 200130Z AUTO 36003KT CAVOK 05/04 Q1032
Conditions at: LFBD (BORDEAUX/MERIGNA, FR) observed 0130 UTC 20 March 2019
Temperature: 5.0°C (41°F)
Dewpoint: 4.0°C (39°F) [RH = 93%]
Pressure (altimeter): 30.47 inches Hg (1032.0 mb)
Winds: from the N (360 degrees) at 3 MPH (3 knots; 1.5 m/s)
Visibility: 6 or more miles (10+ km)
Ceiling: ceiling and visibility are OK
Clouds: unknown
Weather: no significant weather observed at this time

METAR text: LFBD 200100Z AUTO 35003KT CAVOK 05/04 Q1032
Conditions at: LFBD (BORDEAUX/MERIGNA, FR) observed 0100 UTC 20 March 2019
Temperature: 5.0°C (41°F)
Dewpoint: 4.0°C (39°F) [RH = 93%]
Pressure (altimeter): 30.47 inches Hg (1032.0 mb)
Winds: from the N (350 degrees) at 3 MPH (3 knots; 1.5 m/s)
Visibility: 6 or more miles (10+ km)
Ceiling: ceiling and visibility are OK
Clouds: unknown
Weather: no significant weather observed at this time

METAR text: LFBD 200030Z AUTO VRB01KT 9999 1100 R23/P2300 R05/1300U R29/P2300 NSC 06/04 Q1032
Conditions at: LFBD (BORDEAUX/MERIGNA, FR) observed 0030 UTC 20 March 2019
Temperature: 6.0°C (43°F)
Dewpoint: 4.0°C (39°F) [RH = 87%]
Pressure (altimeter): 30.47 inches Hg (1032.0 mb)
Winds: variable direction winds at 1 MPH (1 knots; 0.5 m/s)
Visibility: 6 or more miles (10+ km)
Ceiling: at least 12,000 feet AGL
Clouds: sky clear below 12,000 feet AGL
Weather: no significant weather observed at this time

METAR text: LFBD 200000Z AUTO 36002KT 9999 2400 NSC 06/04 Q1032
Conditions at: LFBD (BORDEAUX/MERIGNA, FR) observed 0000 UTC 20 March 2019
Temperature: 6.0°C (43°F)
Dewpoint: 4.0°C (39°F) [RH = 87%]
Pressure (altimeter): 30.47 inches Hg (1032.0 mb)
Winds: from the N (360 degrees) at 2 MPH (2 knots; 1.0 m/s)
Visibility: 6 or more miles (10+ km)
Ceiling: at least 12,000 feet AGL
Clouds: sky clear below 12,000 feet AGL
Weather: no significant weather observed at this time

METAR text: LFBD 192330Z AUTO 01005KT CAVOK 06/05 Q1032
Conditions at: LFBD (BORDEAUX/MERIGNA, FR) observed 2330 UTC 19 March 2019
Temperature: 6.0°C (43°F)
Dewpoint: 5.0°C (41°F) [RH = 93%]
Pressure (altimeter): 30.47 inches Hg (1032.0 mb)
Winds: from the N (10 degrees) at 6 MPH (5 knots; 2.6 m/s)
Visibility: 6 or more miles (10+ km)
Ceiling: ceiling and visibility are OK
Clouds: unknown
Weather: no significant weather observed at this time

METAR text: LFBD 192300Z AUTO 36007KT CAVOK 07/05 Q1032
Conditions at: LFBD (BORDEAUX/MERIGNA, FR) observed 2300 UTC 19 March 2019
Temperature: 7.0°C (45°F)
Dewpoint: 5.0°C (41°F) [RH = 87%]
Pressure (altimeter): 30.47 inches Hg (1032.0 mb)
Winds: from the N (360 degrees) at 8 MPH (7 knots; 3.6 m/s)
Visibility: 6 or more miles (10+ km)
Ceiling: ceiling and visibility are OK
Clouds: unknown
Weather: no significant weather observed at this time

METAR text: LFBD 192230Z AUTO 01007KT CAVOK 07/05 Q1032
Conditions at: LFBD (BORDEAUX/MERIGNA, FR) observed 2230 UTC 19 March 2019
Temperature: 7.0°C (45°F)
Dewpoint: 5.0°C (41°F) [RH = 87%]
Pressure (altimeter): 30.47 inches Hg (1032.0 mb)
Winds: from the N (10 degrees) at 8 MPH (7 knots; 3.6 m/s)
Visibility: 6 or more miles (10+ km)
Ceiling: ceiling and visibility are OK
Clouds: unknown
Weather: no significant weather observed at this time

METAR text: LFBD 192200Z AUTO 36007KT CAVOK 07/05 Q1032
Conditions at: LFBD (BORDEAUX/MERIGNA, FR) observed 2200 UTC 19 March 2019
Temperature: 7.0°C (45°F)
Dewpoint: 5.0°C (41°F) [RH = 87%]
Pressure (altimeter): 30.47 inches Hg (1032.0 mb)
Winds: from the N (360 degrees) at 8 MPH (7 knots; 3.6 m/s)
Visibility: 6 or more miles (10+ km)
Ceiling: ceiling and visibility are OK
Clouds: unknown
Weather: no significant weather observed at this time

METAR text: LFBD 192130Z AUTO 35006KT CAVOK 08/05 Q1032
Conditions at: LFBD (BORDEAUX/MERIGNA, FR) observed 2130 UTC 19 March 2019
Temperature: 8.0°C (46°F)
Dewpoint: 5.0°C (41°F) [RH = 81%]
Pressure (altimeter): 30.47 inches Hg (1032.0 mb)
Winds: from the N (350 degrees) at 7 MPH (6 knots; 3.1 m/s)
Visibility: 6 or more miles (10+ km)
Ceiling: ceiling and visibility are OK
Clouds: unknown
Weather: no significant weather observed at this time

METAR text: LFBD 192100Z AUTO 34007KT CAVOK 08/05 Q1031
Conditions at: LFBD (BORDEAUX/MERIGNA, FR) observed 2100 UTC 19 March 2019
Temperature: 8.0°C (46°F)
Dewpoint: 5.0°C (41°F) [RH = 81%]
Pressure (altimeter): 30.44 inches Hg (1031.0 mb)
Winds: from the NNW (340 degrees) at 8 MPH (7 knots; 3.6 m/s)
Visibility: 6 or more miles (10+ km)
Ceiling: ceiling and visibility are OK
Clouds: unknown
Weather: no significant weather observed at this time

METAR text: LFBD 192030Z AUTO 33006KT 320V020 CAVOK 08/04 Q1031
Conditions at: LFBD (BORDEAUX/MERIGNA, FR) observed 2030 UTC 19 March 2019
Temperature: 8.0°C (46°F)
Dewpoint: 4.0°C (39°F) [RH = 76%]
Pressure (altimeter): 30.44 inches Hg (1031.0 mb)
Winds: from the NNW (330 degrees) at 7 MPH (6 knots; 3.1 m/s)
Visibility: 6 or more miles (10+ km)
Ceiling: ceiling and visibility are OK
Clouds: unknown
Weather: no significant weather observed at this time

METAR text: LFBD 192000Z AUTO 32006KT CAVOK 08/04 Q1031
Conditions at: LFBD (BORDEAUX/MERIGNA, FR) observed 2000 UTC 19 March 2019
Temperature: 8.0°C (46°F)
Dewpoint: 4.0°C (39°F) [RH = 76%]
Pressure (altimeter): 30.44 inches Hg (1031.0 mb)
Winds: from the NW (320 degrees) at 7 MPH (6 knots; 3.1 m/s)
Visibility: 6 or more miles (10+ km)
Ceiling: ceiling and visibility are OK
Clouds: unknown
Weather: no significant weather observed at this time

METAR text: LFBD 191930Z AUTO 34005KT CAVOK 09/04 Q1030
Conditions at: LFBD (BORDEAUX/MERIGNA, FR) observed 1930 UTC 19 March 2019
Temperature: 9.0°C (48°F)
Dewpoint: 4.0°C (39°F) [RH = 71%]
Pressure (altimeter): 30.41 inches Hg (1030.0 mb)
Winds: from the NNW (340 degrees) at 6 MPH (5 knots; 2.6 m/s)
Visibility: 6 or more miles (10+ km)
Ceiling: ceiling and visibility are OK
Clouds: unknown
Weather: no significant weather observed at this time

METAR text: LFBD 191900Z AUTO 33004KT 290V010 CAVOK 09/04 Q1030
Conditions at: LFBD (BORDEAUX/MERIGNA, FR) observed 1900 UTC 19 March 2019
Temperature: 9.0°C (48°F)
Dewpoint: 4.0°C (39°F) [RH = 71%]
Pressure (altimeter): 30.41 inches Hg (1030.0 mb)
Winds: from the NNW (330 degrees) at 5 MPH (4 knots; 2.1 m/s)
Visibility: 6 or more miles (10+ km)
Ceiling: ceiling and visibility are OK
Clouds: unknown
Weather: no significant weather observed at this time

METAR text: LFBD 191830Z AUTO 34006KT CAVOK 10/03 Q1030
Conditions at: LFBD (BORDEAUX/MERIGNA, FR) observed 1830 UTC 19 March 2019
Temperature: 10.0°C (50°F)
Dewpoint: 3.0°C (37°F) [RH = 62%]
Pressure (altimeter): 30.41 inches Hg (1030.0 mb)
Winds: from the NNW (340 degrees) at 7 MPH (6 knots; 3.1 m/s)
Visibility: 6 or more miles (10+ km)
Ceiling: ceiling and visibility are OK
Clouds: unknown
Weather: no significant weather observed at this time

METAR text: LFBD 191800Z AUTO 36007KT CAVOK 11/03 Q1030
Conditions at: LFBD (BORDEAUX/MERIGNA, FR) observed 1800 UTC 19 March 2019
Temperature: 11.0°C (52°F)
Dewpoint: 3.0°C (37°F) [RH = 58%]
Pressure (altimeter): 30.41 inches Hg (1030.0 mb)
Winds: from the N (360 degrees) at 8 MPH (7 knots; 3.6 m/s)
Visibility: 6 or more miles (10+ km)
Ceiling: ceiling and visibility are OK
Clouds: unknown
Weather: no significant weather observed at this time

METAR text: LFBD 191730Z AUTO 36008KT CAVOK 12/02 Q1029
Conditions at: LFBD (BORDEAUX/MERIGNA, FR) observed 1730 UTC 19 March 2019
Temperature: 12.0°C (54°F)
Dewpoint: 2.0°C (36°F) [RH = 50%]
Pressure (altimeter): 30.38 inches Hg (1029.0 mb)
Winds: from the N (360 degrees) at 9 MPH (8 knots; 4.1 m/s)
Visibility: 6 or more miles (10+ km)
Ceiling: ceiling and visibility are OK
Clouds: unknown
Weather: no significant weather observed at this time

METAR text: LFBD 191700Z AUTO 01009KT CAVOK 12/02 Q1029
Conditions at: LFBD (BORDEAUX/MERIGNA, FR) observed 1700 UTC 19 March 2019
Temperature: 12.0°C (54°F)
Dewpoint: 2.0°C (36°F) [RH = 50%]
Pressure (altimeter): 30.38 inches Hg (1029.0 mb)
Winds: from the N (10 degrees) at 10 MPH (9 knots; 4.6 m/s)
Visibility: 6 or more miles (10+ km)
Ceiling: ceiling and visibility are OK
Clouds: unknown
Weather: no significant weather observed at this time

METAR text: LFBD 191630Z AUTO 36009KT CAVOK 13/03 Q1029
Conditions at: LFBD (BORDEAUX/MERIGNA, FR) observed 1630 UTC 19 March 2019
Temperature: 13.0°C (55°F)
Dewpoint: 3.0°C (37°F) [RH = 51%]
Pressure (altimeter): 30.38 inches Hg (1029.0 mb)
Winds: from the N (360 degrees) at 10 MPH (9 knots; 4.6 m/s)
Visibility: 6 or more miles (10+ km)
Ceiling: ceiling and visibility are OK
Clouds: unknown
Weather: no significant weather observed at this time

METAR text: LFBD 191600Z AUTO 35010KT 9999 SCT042 13/03 Q1029
Conditions at: LFBD (BORDEAUX/MERIGNA, FR) observed 1600 UTC 19 March 2019
Temperature: 13.0°C (55°F)
Dewpoint: 3.0°C (37°F) [RH = 51%]
Pressure (altimeter): 30.38 inches Hg (1029.0 mb)
Winds: from the N (350 degrees) at 12 MPH (10 knots; 5.1 m/s)
Visibility: 6 or more miles (10+ km)
Ceiling: at least 12,000 feet AGL
Clouds: scattered clouds at 4200 feet AGL
Weather: no significant weather observed at this time

METAR text: LFBD 191530Z AUTO 36011KT 330V030 9999 BKN041 BKN056 13/03 Q1029
Conditions at: LFBD (BORDEAUX/MERIGNA, FR) observed 1530 UTC 19 March 2019
Temperature: 13.0°C (55°F)
Dewpoint: 3.0°C (37°F) [RH = 51%]
Pressure (altimeter): 30.38 inches Hg (1029.0 mb)
Winds: from the N (360 degrees) at 13 MPH (11 knots; 5.7 m/s)
Visibility: 6 or more miles (10+ km)
Ceiling: 4100 feet AGL
Clouds: broken clouds at 4100 feet AGL
broken clouds at 5600 feet AGL
Weather: no significant weather observed at this time

METAR text: LFBD 191500Z AUTO 36009KT 320V020 9999 FEW040 BKN056 13/04 Q1029
Conditions at: LFBD (BORDEAUX/MERIGNA, FR) observed 1500 UTC 19 March 2019
Temperature: 13.0°C (55°F)
Dewpoint: 4.0°C (39°F) [RH = 54%]
Pressure (altimeter): 30.38 inches Hg (1029.0 mb)
Winds: from the N (360 degrees) at 10 MPH (9 knots; 4.6 m/s)
Visibility: 6 or more miles (10+ km)
Ceiling: 5600 feet AGL
Clouds: few clouds at 4000 feet AGL
broken clouds at 5600 feet AGL
Weather: no significant weather observed at this time

METAR text: LFBD 191430Z AUTO 02008KT 320V070 9999 SCT040 BKN056 12/03 Q1029
Conditions at: LFBD (BORDEAUX/MERIGNA, FR) observed 1430 UTC 19 March 2019
Temperature: 12.0°C (54°F)
Dewpoint: 3.0°C (37°F) [RH = 54%]
Pressure (altimeter): 30.38 inches Hg (1029.0 mb)
Winds: from the NNE (20 degrees) at 9 MPH (8 knots; 4.1 m/s)
Visibility: 6 or more miles (10+ km)
Ceiling: 5600 feet AGL
Clouds: scattered clouds at 4000 feet AGL
broken clouds at 5600 feet AGL
Weather: no significant weather observed at this time

METAR text: LFBD 191400Z AUTO 02010KT 9999 FEW040 SCT048 BKN056 12/03 Q1029
Conditions at: LFBD (BORDEAUX/MERIGNA, FR) observed 1400 UTC 19 March 2019
Temperature: 12.0°C (54°F)
Dewpoint: 3.0°C (37°F) [RH = 54%]
Pressure (altimeter): 30.38 inches Hg (1029.0 mb)
Winds: from the NNE (20 degrees) at 12 MPH (10 knots; 5.1 m/s)
Visibility: 6 or more miles (10+ km)
Ceiling: 5600 feet AGL
Clouds: few clouds at 4000 feet AGL
scattered clouds at 4800 feet AGL
broken clouds at 5600 feet AGL
Weather: no significant weather observed at this time

METAR text: LFBD 191330Z AUTO 02009KT 350V050 9999 FEW043 BKN054 12/04 Q1029
Conditions at: LFBD (BORDEAUX/MERIGNA, FR) observed 1330 UTC 19 March 2019
Temperature: 12.0°C (54°F)
Dewpoint: 4.0°C (39°F) [RH = 58%]
Pressure (altimeter): 30.38 inches Hg (1029.0 mb)
Winds: from the NNE (20 degrees) at 10 MPH (9 knots; 4.6 m/s)
Visibility: 6 or more miles (10+ km)
Ceiling: 5400 feet AGL
Clouds: few clouds at 4300 feet AGL
broken clouds at 5400 feet AGL
Weather: no significant weather observed at this time

METAR text: LFBD 191300Z AUTO 36006KT 310V030 9999 BKN041 BKN047 BKN056 12/03 Q1029
Conditions at: LFBD (BORDEAUX/MERIGNA, FR) observed 1300 UTC 19 March 2019
Temperature: 12.0°C (54°F)
Dewpoint: 3.0°C (37°F) [RH = 54%]
Pressure (altimeter): 30.38 inches Hg (1029.0 mb)
Winds: from the N (360 degrees) at 7 MPH (6 knots; 3.1 m/s)
Visibility: 6 or more miles (10+ km)
Ceiling: 4100 feet AGL
Clouds: broken clouds at 4100 feet AGL
broken clouds at 4700 feet AGL
broken clouds at 5600 feet AGL
Weather: no significant weather observed at this time

METAR text: LFBD 191230Z AUTO 36009KT 330V050 9999 SCT037 BKN045 BKN054 12/04 Q1029
Conditions at: LFBD (BORDEAUX/MERIGNA, FR) observed 1230 UTC 19 March 2019
Temperature: 12.0°C (54°F)
Dewpoint: 4.0°C (39°F) [RH = 58%]
Pressure (altimeter): 30.38 inches Hg (1029.0 mb)
Winds: from the N (360 degrees) at 10 MPH (9 knots; 4.6 m/s)
Visibility: 6 or more miles (10+ km)
Ceiling: 4500 feet AGL
Clouds: scattered clouds at 3700 feet AGL
broken clouds at 4500 feet AGL
broken clouds at 5400 feet AGL
Weather: no significant weather observed at this time

METAR text: LFBD 191200Z AUTO 04009KT 350V070 9999 SCT037 BKN044 11/04 Q1029
Conditions at: LFBD (BORDEAUX/MERIGNA, FR) observed 1200 UTC 19 March 2019
Temperature: 11.0°C (52°F)
Dewpoint: 4.0°C (39°F) [RH = 62%]
Pressure (altimeter): 30.38 inches Hg (1029.0 mb)
Winds: from the NE (40 degrees) at 10 MPH (9 knots; 4.6 m/s)
Visibility: 6 or more miles (10+ km)
Ceiling: 4400 feet AGL
Clouds: scattered clouds at 3700 feet AGL
broken clouds at 4400 feet AGL
Weather: no significant weather observed at this time

METAR text: LFBD 191130Z AUTO 02008KT 350V060 9999 SCT036 SCT042 11/04 Q1029
Conditions at: LFBD (BORDEAUX/MERIGNA, FR) observed 1130 UTC 19 March 2019
Temperature: 11.0°C (52°F)
Dewpoint: 4.0°C (39°F) [RH = 62%]
Pressure (altimeter): 30.38 inches Hg (1029.0 mb)
Winds: from the NNE (20 degrees) at 9 MPH (8 knots; 4.1 m/s)
Visibility: 6 or more miles (10+ km)
Ceiling: at least 12,000 feet AGL
Clouds: scattered clouds at 3600 feet AGL
scattered clouds at 4200 feet AGL
Weather: no significant weather observed at this time

METAR text: LFBD 191100Z AUTO 36008KT 330V040 9999 BKN026 OVC033 11/04 Q1029
Conditions at: LFBD (BORDEAUX/MERIGNA, FR) observed 1100 UTC 19 March 2019
Temperature: 11.0°C (52°F)
Dewpoint: 4.0°C (39°F) [RH = 62%]
Pressure (altimeter): 30.38 inches Hg (1029.0 mb)
Winds: from the N (360 degrees) at 9 MPH (8 knots; 4.1 m/s)
Visibility: 6 or more miles (10+ km)
Ceiling: 2600 feet AGL
Clouds: broken clouds at 2600 feet AGL
overcast cloud deck at 3300 feet AGL
Weather: no significant weather observed at this time

METAR text: LFBD 191030Z AUTO 04006KT 360V070 9999 SCT023 BKN030 10/05 Q1029
Conditions at: LFBD (BORDEAUX/MERIGNA, FR) observed 1030 UTC 19 March 2019
Temperature: 10.0°C (50°F)
Dewpoint: 5.0°C (41°F) [RH = 71%]
Pressure (altimeter): 30.38 inches Hg (1029.0 mb)
Winds: from the NE (40 degrees) at 7 MPH (6 knots; 3.1 m/s)
Visibility: 6 or more miles (10+ km)
Ceiling: 3000 feet AGL
Clouds: scattered clouds at 2300 feet AGL
broken clouds at 3000 feet AGL
Weather: no significant weather observed at this time

METAR text: LFBD 191000Z AUTO 04007KT 010V070 9999 FEW018 SCT038 09/05 Q1029
Conditions at: LFBD (BORDEAUX/MERIGNA, FR) observed 1000 UTC 19 March 2019
Temperature: 9.0°C (48°F)
Dewpoint: 5.0°C (41°F) [RH = 76%]
Pressure (altimeter): 30.38 inches Hg (1029.0 mb)
Winds: from the NE (40 degrees) at 8 MPH (7 knots; 3.6 m/s)
Visibility: 6 or more miles (10+ km)
Ceiling: at least 12,000 feet AGL
Clouds: few clouds at 1800 feet AGL
scattered clouds at 3800 feet AGL
Weather: no significant weather observed at this time

METAR text: LFBD 190930Z AUTO 03005KT 350V060 9999 FEW015 OVC040 09/05 Q1029
Conditions at: LFBD (BORDEAUX/MERIGNA, FR) observed 0930 UTC 19 March 2019
Temperature: 9.0°C (48°F)
Dewpoint: 5.0°C (41°F) [RH = 76%]
Pressure (altimeter): 30.38 inches Hg (1029.0 mb)
Winds: from the NNE (30 degrees) at 6 MPH (5 knots; 2.6 m/s)
Visibility: 6 or more miles (10+ km)
Ceiling: 4000 feet AGL
Clouds: few clouds at 1500 feet AGL
overcast cloud deck at 4000 feet AGL
Weather: no significant weather observed at this time

METAR text: LFBD 190900Z AUTO 03005KT 360V060 9999 FEW008 OVC040 09/07 Q1029
Conditions at: LFBD (BORDEAUX/MERIGNA, FR) observed 0900 UTC 19 March 2019
Temperature: 9.0°C (48°F)
Dewpoint: 7.0°C (45°F) [RH = 87%]
Pressure (altimeter): 30.38 inches Hg (1029.0 mb)
Winds: from the NNE (30 degrees) at 6 MPH (5 knots; 2.6 m/s)
Visibility: 6 or more miles (10+ km)
Ceiling: 4000 feet AGL
Clouds: few clouds at 800 feet AGL
overcast cloud deck at 4000 feet AGL
Weather: no significant weather observed at this time

METAR text: LFBD 190830Z AUTO 03006KT 9999 BKN006 BKN010 07/06 Q1029
Conditions at: LFBD (BORDEAUX/MERIGNA, FR) observed 0830 UTC 19 March 2019
Temperature: 7.0°C (45°F)
Dewpoint: 6.0°C (43°F) [RH = 93%]
Pressure (altimeter): 30.38 inches Hg (1029.0 mb)
Winds: from the NNE (30 degrees) at 7 MPH (6 knots; 3.1 m/s)
Visibility: 6 or more miles (10+ km)
Ceiling: 600 feet AGL
Clouds: broken clouds at 600 feet AGL
broken clouds at 1000 feet AGL
Weather: no significant weather observed at this time

METAR text: LFBD 190800Z AUTO 36005KT 9999 BKN004 07/06 Q1028
Conditions at: LFBD (BORDEAUX/MERIGNA, FR) observed 0800 UTC 19 March 2019
Temperature: 7.0°C (45°F)
Dewpoint: 6.0°C (43°F) [RH = 93%]
Pressure (altimeter): 30.35 inches Hg (1028.0 mb)
Winds: from the N (360 degrees) at 6 MPH (5 knots; 2.6 m/s)
Visibility: 6 or more miles (10+ km)
Ceiling: 400 feet AGL
Clouds: broken clouds at 400 feet AGL
Weather: no significant weather observed at this time

METAR text: LFBD 190730Z AUTO VRB02KT 9999 0500 R23/P2300 R05/0800D R29/P2300 BCFG FEW006 07/06 Q1028
Conditions at: LFBD (BORDEAUX/MERIGNA, FR) observed 0730 UTC 19 March 2019
Temperature: 7.0°C (45°F)
Dewpoint: 6.0°C (43°F) [RH = 93%]
Pressure (altimeter): 30.35 inches Hg (1028.0 mb)
Winds: variable direction winds at 2 MPH (2 knots; 1.0 m/s)
Visibility: 6 or more miles (10+ km)
Ceiling: at least 12,000 feet AGL
Clouds: few clouds at 600 feet AGL
Weather: BCFG  (patches of fog)

METAR text: LFBD 190700Z AUTO 36004KT 9999 1600 FEW004 SCT037 06/05 Q1028
Conditions at: LFBD (BORDEAUX/MERIGNA, FR) observed 0700 UTC 19 March 2019
Temperature: 6.0°C (43°F)
Dewpoint: 5.0°C (41°F) [RH = 93%]
Pressure (altimeter): 30.35 inches Hg (1028.0 mb)
Winds: from the N (360 degrees) at 5 MPH (4 knots; 2.1 m/s)
Visibility: 6 or more miles (10+ km)
Ceiling: at least 12,000 feet AGL
Clouds: few clouds at 400 feet AGL
scattered clouds at 3700 feet AGL
Weather: no significant weather observed at this time

METAR text: LFBD 190630Z AUTO 04003KT 320V080 9999 1100 R23/P2300 R05/1100U R29/P2300 BKN037 06/05 Q1027
Conditions at: LFBD (BORDEAUX/MERIGNA, FR) observed 0630 UTC 19 March 2019
Temperature: 6.0°C (43°F)
Dewpoint: 5.0°C (41°F) [RH = 93%]
Pressure (altimeter): 30.32 inches Hg (1027.0 mb)
Winds: from the NE (40 degrees) at 3 MPH (3 knots; 1.5 m/s)
Visibility: 6 or more miles (10+ km)
Ceiling: 3700 feet AGL
Clouds: broken clouds at 3700 feet AGL
Weather: no significant weather observed at this time

METAR text: LFBD 190600Z AUTO 02003KT 360V070 9999 0900 R23/P2300 R05/1100D R29/P2300 BCFG OVC036 06/06 Q1027
Conditions at: LFBD (BORDEAUX/MERIGNA, FR) observed 0600 UTC 19 March 2019
Temperature: 6.0°C (43°F)
Dewpoint: 6.0°C (43°F) [RH = 100%]
Pressure (altimeter): 30.32 inches Hg (1027.0 mb)
Winds: from the NNE (20 degrees) at 3 MPH (3 knots; 1.5 m/s)
Visibility: 6 or more miles (10+ km)
Ceiling: 3600 feet AGL
Clouds: overcast cloud deck at 3600 feet AGL
Weather: BCFG  (patches of fog)

METAR text: LFBD 190530Z AUTO 36004KT 9999 OVC035 06/06 Q1027
Conditions at: LFBD (BORDEAUX/MERIGNA, FR) observed 0530 UTC 19 March 2019
Temperature: 6.0°C (43°F)
Dewpoint: 6.0°C (43°F) [RH = 100%]
Pressure (altimeter): 30.32 inches Hg (1027.0 mb)
Winds: from the N (360 degrees) at 5 MPH (4 knots; 2.1 m/s)
Visibility: 6 or more miles (10+ km)
Ceiling: 3500 feet AGL
Clouds: overcast cloud deck at 3500 feet AGL
Weather: no significant weather observed at this time

METAR text: LFBD 190500Z AUTO 34004KT 9999 BKN036 06/06 Q1027
Conditions at: LFBD (BORDEAUX/MERIGNA, FR) observed 0500 UTC 19 March 2019
Temperature: 6.0°C (43°F)
Dewpoint: 6.0°C (43°F) [RH = 100%]
Pressure (altimeter): 30.32 inches Hg (1027.0 mb)
Winds: from the NNW (340 degrees) at 5 MPH (4 knots; 2.1 m/s)
Visibility: 6 or more miles (10+ km)
Ceiling: 3600 feet AGL
Clouds: broken clouds at 3600 feet AGL
Weather: no significant weather observed at this time

METAR text: LFBD 190430Z AUTO 35004KT 9999 BKN034 06/06 Q1027
Conditions at: LFBD (BORDEAUX/MERIGNA, FR) observed 0430 UTC 19 March 2019
Temperature: 6.0°C (43°F)
Dewpoint: 6.0°C (43°F) [RH = 100%]
Pressure (altimeter): 30.32 inches Hg (1027.0 mb)
Winds: from the N (350 degrees) at 5 MPH (4 knots; 2.1 m/s)
Visibility: 6 or more miles (10+ km)
Ceiling: 3400 feet AGL
Clouds: broken clouds at 3400 feet AGL
Weather: no significant weather observed at this time

METAR text: LFBD 190400Z AUTO 34004KT 9999 OVC033 07/06 Q1027
Conditions at: LFBD (BORDEAUX/MERIGNA, FR) observed 0400 UTC 19 March 2019
Temperature: 7.0°C (45°F)
Dewpoint: 6.0°C (43°F) [RH = 93%]
Pressure (altimeter): 30.32 inches Hg (1027.0 mb)
Winds: from the NNW (340 degrees) at 5 MPH (4 knots; 2.1 m/s)
Visibility: 6 or more miles (10+ km)
Ceiling: 3300 feet AGL
Clouds: overcast cloud deck at 3300 feet AGL
Weather: no significant weather observed at this time

METAR text: LFBD 190330Z AUTO 34004KT 9999 OVC033 06/06 Q1026
Conditions at: LFBD (BORDEAUX/MERIGNA, FR) observed 0330 UTC 19 March 2019
Temperature: 6.0°C (43°F)
Dewpoint: 6.0°C (43°F) [RH = 100%]
Pressure (altimeter): 30.30 inches Hg (1026.0 mb)
Winds: from the NNW (340 degrees) at 5 MPH (4 knots; 2.1 m/s)
Visibility: 6 or more miles (10+ km)
Ceiling: 3300 feet AGL
Clouds: overcast cloud deck at 3300 feet AGL
Weather: no significant weather observed at this time

METAR text: LFBD 190300Z AUTO 33004KT 9999 BKN033 06/06 Q1026
Conditions at: LFBD (BORDEAUX/MERIGNA, FR) observed 0300 UTC 19 March 2019
Temperature: 6.0°C (43°F)
Dewpoint: 6.0°C (43°F) [RH = 100%]
Pressure (altimeter): 30.30 inches Hg (1026.0 mb)
Winds: from the NNW (330 degrees) at 5 MPH (4 knots; 2.1 m/s)
Visibility: 6 or more miles (10+ km)
Ceiling: 3300 feet AGL
Clouds: broken clouds at 3300 feet AGL
Weather: no significant weather observed at this time

METAR text: LFBD 190230Z AUTO 32003KT CAVOK 07/06 Q1026
Conditions at: LFBD (BORDEAUX/MERIGNA, FR) observed 0230 UTC 19 March 2019
Temperature: 7.0°C (45°F)
Dewpoint: 6.0°C (43°F) [RH = 93%]
Pressure (altimeter): 30.30 inches Hg (1026.0 mb)
Winds: from the NW (320 degrees) at 3 MPH (3 knots; 1.5 m/s)
Visibility: 6 or more miles (10+ km)
Ceiling: ceiling and visibility are OK
Clouds: unknown
Weather: no significant weather observed at this time

METAR text: LFBD 190200Z AUTO 32003KT 9999 FEW014 SCT086 OVC140 07/06 Q1026
Conditions at: LFBD (BORDEAUX/MERIGNA, FR) observed 0200 UTC 19 March 2019
Temperature: 7.0°C (45°F)
Dewpoint: 6.0°C (43°F) [RH = 93%]
Pressure (altimeter): 30.30 inches Hg (1026.0 mb)
Winds: from the NW (320 degrees) at 3 MPH (3 knots; 1.5 m/s)
Visibility: 6 or more miles (10+ km)
Ceiling: 14000 feet AGL
Clouds: few clouds at 1400 feet AGL
scattered clouds at 8600 feet AGL
overcast cloud deck at 14000 feet AGL
Weather: no significant weather observed at this time

METAR text: LFBD 190130Z AUTO 33003KT 9999 FEW019 BKN026 BKN033 07/07 Q1026
Conditions at: LFBD (BORDEAUX/MERIGNA, FR) observed 0130 UTC 19 March 2019
Temperature: 7.0°C (45°F)
Dewpoint: 7.0°C (45°F) [RH = 100%]
Pressure (altimeter): 30.30 inches Hg (1026.0 mb)
Winds: from the NNW (330 degrees) at 3 MPH (3 knots; 1.5 m/s)
Visibility: 6 or more miles (10+ km)
Ceiling: 2600 feet AGL
Clouds: few clouds at 1900 feet AGL
broken clouds at 2600 feet AGL
broken clouds at 3300 feet AGL
Weather: no significant weather observed at this time

METAR text: LFBD 190100Z AUTO VRB03KT 9999 FEW014 SCT030 BKN038 07/07 Q1027
Conditions at: LFBD (BORDEAUX/MERIGNA, FR) observed 0100 UTC 19 March 2019
Temperature: 7.0°C (45°F)
Dewpoint: 7.0°C (45°F) [RH = 100%]
Pressure (altimeter): 30.32 inches Hg (1027.0 mb)
Winds: variable direction winds at 3 MPH (3 knots; 1.5 m/s)
Visibility: 6 or more miles (10+ km)
Ceiling: 3800 feet AGL
Clouds: few clouds at 1400 feet AGL
scattered clouds at 3000 feet AGL
broken clouds at 3800 feet AGL
Weather: no significant weather observed at this time

METAR text: LFBD 190030Z AUTO VRB03KT 9999 -RA SCT038 SCT045 BKN058 07/07 Q1027
Conditions at: LFBD (BORDEAUX/MERIGNA, FR) observed 0030 UTC 19 March 2019
Temperature: 7.0°C (45°F)
Dewpoint: 7.0°C (45°F) [RH = 100%]
Pressure (altimeter): 30.32 inches Hg (1027.0 mb)
Winds: variable direction winds at 3 MPH (3 knots; 1.5 m/s)
Visibility: 6 or more miles (10+ km)
Ceiling: 5800 feet AGL
Clouds: scattered clouds at 3800 feet AGL
scattered clouds at 4500 feet AGL
broken clouds at 5800 feet AGL
Weather: -RA  (light rain)

METAR text: LFBD 190000Z AUTO 32004KT 280V340 9999 -RA FEW014 SCT041 OVC049 07/07 Q1027
Conditions at: LFBD (BORDEAUX/MERIGNA, FR) observed 0000 UTC 19 March 2019
Temperature: 7.0°C (45°F)
Dewpoint: 7.0°C (45°F) [RH = 100%]
Pressure (altimeter): 30.32 inches Hg (1027.0 mb)
Winds: from the NW (320 degrees) at 5 MPH (4 knots; 2.1 m/s)
Visibility: 6 or more miles (10+ km)
Ceiling: 4900 feet AGL
Clouds: few clouds at 1400 feet AGL
scattered clouds at 4100 feet AGL
overcast cloud deck at 4900 feet AGL
Weather: -RA  (light rain)

METAR text: LFBD 182330Z AUTO 27003KT 9999 -RA BKN015/// BKN024/// BKN033/// ///TCU 08/07 Q1027
Conditions at: LFBD (BORDEAUX/MERIGNA, FR) observed 2330 UTC 18 March 2019
Temperature: 8.0°C (46°F)
Dewpoint: 7.0°C (45°F) [RH = 93%]
Pressure (altimeter): 30.32 inches Hg (1027.0 mb)
Winds: from the W (270 degrees) at 3 MPH (3 knots; 1.5 m/s)
Visibility: 6 or more miles (10+ km)
Ceiling: 1500 feet AGL
Clouds: broken clouds at 1500 feet AGL
broken clouds at 2400 feet AGL
broken clouds at 3300 feet AGL
Weather: -RA  (light rain)

METAR text: LFBD 182300Z AUTO 28003KT 7000 -RA SCT017/// BKN029/// BKN039/// ///TCU 08/07 Q1027
Conditions at: LFBD (BORDEAUX/MERIGNA, FR) observed 2300 UTC 18 March 2019
Temperature: 8.0°C (46°F)
Dewpoint: 7.0°C (45°F) [RH = 93%]
Pressure (altimeter): 30.32 inches Hg (1027.0 mb)
Winds: from the W (280 degrees) at 3 MPH (3 knots; 1.5 m/s)
Visibility: 4 miles ( 7 km)
Ceiling: 2900 feet AGL
Clouds: scattered clouds at 1700 feet AGL
broken clouds at 2900 feet AGL
broken clouds at 3900 feet AGL
Weather: -RA  (light rain)

METAR text: LFBD 182230Z AUTO 27003KT 9999 -RA BKN016/// BKN024/// OVC033/// ///TCU 08/07 Q1027
Conditions at: LFBD (BORDEAUX/MERIGNA, FR) observed 2230 UTC 18 March 2019
Temperature: 8.0°C (46°F)
Dewpoint: 7.0°C (45°F) [RH = 93%]
Pressure (altimeter): 30.32 inches Hg (1027.0 mb)
Winds: from the W (270 degrees) at 3 MPH (3 knots; 1.5 m/s)
Visibility: 6 or more miles (10+ km)
Ceiling: 1600 feet AGL
Clouds: broken clouds at 1600 feet AGL
broken clouds at 2400 feet AGL
overcast cloud deck at 3300 feet AGL
Weather: -RA  (light rain)

METAR text: LFBD 182200Z AUTO 25004KT 9999 -RA SCT034 BKN042 BKN062 08/07 Q1027
Conditions at: LFBD (BORDEAUX/MERIGNA, FR) observed 2200 UTC 18 March 2019
Temperature: 8.0°C (46°F)
Dewpoint: 7.0°C (45°F) [RH = 93%]
Pressure (altimeter): 30.32 inches Hg (1027.0 mb)
Winds: from the WSW (250 degrees) at 5 MPH (4 knots; 2.1 m/s)
Visibility: 6 or more miles (10+ km)
Ceiling: 4200 feet AGL
Clouds: scattered clouds at 3400 feet AGL
broken clouds at 4200 feet AGL
broken clouds at 6200 feet AGL
Weather: -RA  (light rain)

METAR text: LFBD 182130Z AUTO 27003KT 250V310 9999 -RA FEW029 BKN038 BKN048 08/07 Q1027
Conditions at: LFBD (BORDEAUX/MERIGNA, FR) observed 2130 UTC 18 March 2019
Temperature: 8.0°C (46°F)
Dewpoint: 7.0°C (45°F) [RH = 93%]
Pressure (altimeter): 30.32 inches Hg (1027.0 mb)
Winds: from the W (270 degrees) at 3 MPH (3 knots; 1.5 m/s)
Visibility: 6 or more miles (10+ km)
Ceiling: 3800 feet AGL
Clouds: few clouds at 2900 feet AGL
broken clouds at 3800 feet AGL
broken clouds at 4800 feet AGL
Weather: -RA  (light rain)

METAR text: LFBD 182100Z AUTO 28003KT 9999 -RA FEW018 SCT033 BKN040 08/07 Q1027
Conditions at: LFBD (BORDEAUX/MERIGNA, FR) observed 2100 UTC 18 March 2019
Temperature: 8.0°C (46°F)
Dewpoint: 7.0°C (45°F) [RH = 93%]
Pressure (altimeter): 30.32 inches Hg (1027.0 mb)
Winds: from the W (280 degrees) at 3 MPH (3 knots; 1.5 m/s)
Visibility: 6 or more miles (10+ km)
Ceiling: 4000 feet AGL
Clouds: few clouds at 1800 feet AGL
scattered clouds at 3300 feet AGL
broken clouds at 4000 feet AGL
Weather: -RA  (light rain)

METAR text: LFBD 182030Z AUTO 28003KT 9999 SCT030 BKN038 BKN060 08/07 Q1027
Conditions at: LFBD (BORDEAUX/MERIGNA, FR) observed 2030 UTC 18 March 2019
Temperature: 8.0°C (46°F)
Dewpoint: 7.0°C (45°F) [RH = 93%]
Pressure (altimeter): 30.32 inches Hg (1027.0 mb)
Winds: from the W (280 degrees) at 3 MPH (3 knots; 1.5 m/s)
Visibility: 6 or more miles (10+ km)
Ceiling: 3800 feet AGL
Clouds: scattered clouds at 3000 feet AGL
broken clouds at 3800 feet AGL
broken clouds at 6000 feet AGL
Weather: no significant weather observed at this time

Forecast for: LFBD (BORDEAUX/MERIGNA, FR)
Text: TAF LFBD 200500Z 2006/2112 02007KT CAVOK TX15/2015Z TN03/2006Z
Forecast period: 0600 UTC 20 March 2019 to 1200 UTC 21 March 2019
Forecast type: FROM: standard forecast or significant change
Winds: from the NNE (20 degrees) at 8 MPH (7 knots; 3.6 m/s)
Visibility: 6 or more miles 10+ km)
Ceiling: unknown
Clouds: missing
Weather: no significant weather forecast for this period
Text: TEMPO 2006/2007 0800 BCFG
Forecast period: 0600 to 0700 UTC 20 March 2019
Forecast type: TEMPORARY: The following changes expected for less than half the time period
Visibility: 0.50 miles (0.80 km)
Ceiling: unknown
Clouds: missing
Weather: BCFG  (patches of fog)